Ames, Kansas
Current Conditions -  °F | °C
As of 1:10 AM on Saturday 20 Dec 2014 (Local Time) from KCNK Reporting Station
Haze Haze  
Wind Chill: 23°   Ceiling: Unl
Heat Index: 30°   Visibility: 5mi
Dew Point: 30°   Wind: 7mph
Humidity: 100%   Direction: 190°S
Pressure: 30.08"   Gusts: NA
Location:  39.4716°N, 97.7305°W
Report Text: KCNK 200710Z AUTO 19006KT 5SM BR SCT003 M01/M01 A3008 RMK AO2 T10111011 $
Loading
Personal Weather Stations






























Interactive Weather Map New forecast layout! Learn more

10-Day Weather Forecast

Advertisements
Track Severe Weather on mobile